Time;durP1;ratioP1;P1;durP2;ratioP2;P2;SDS_P1;SDS_P2;PMS_P1;PMS_P2;Temp;Humidity;BMP_temperature;BMP_pressure;BME280_temperature;BME280_humidity;BME280_pressure;Samples;Min_cycle;Max_cycle;Signal;HPM_P1;HPM_P2
2021/07/09 00:02:16;;;;;;;3.60;2.47;;;13.90;99.90;;;;;;6133542;23;20013;-79
2021/07/09 00:04:47;;;;;;;3.90;1.88;;;13.90;99.90;;;;;;6099280;23;20037;-79
2021/07/09 00:07:14;;;;;;;2.28;2.08;;;13.90;99.90;;;;;;6104986;23;20033;-78
2021/07/09 00:09:46;;;;;;;2.10;1.88;;;13.90;99.90;;;;;;6096836;23;20014;-79
2021/07/09 00:12:15;;;;;;;1.92;1.77;;;13.90;99.90;;;;;;6119943;23;20029;-79
2021/07/09 00:14:43;;;;;;;1.98;1.88;;;13.90;99.90;;;;;;6092522;23;20455;-79
2021/07/09 00:17:11;;;;;;;1.80;1.70;;;13.90;99.90;;;;;;6133592;23;20014;-79
2021/07/09 00:19:39;;;;;;;1.40;1.30;;;13.80;99.90;;;;;;6128796;23;20026;-79
2021/07/09 00:22:07;;;;;;;1.92;1.73;;;13.80;99.90;;;;;;6099365;23;20018;-79
2021/07/09 00:24:35;;;;;;;1.80;1.70;;;13.70;99.90;;;;;;6095356;23;20485;-79
2021/07/09 00:27:03;;;;;;;2.10;1.90;;;13.70;99.90;;;;;;6101949;23;20023;-79
2021/07/09 00:29:31;;;;;;;3.47;3.17;;;13.70;99.90;;;;;;6043833;23;20026;-79
2021/07/09 00:31:59;;;;;;;2.08;1.98;;;13.70;99.90;;;;;;6072680;23;20465;-79
2021/07/09 00:34:27;;;;;;;2.50;2.28;;;13.70;99.90;;;;;;6078429;23;20025;-78
2021/07/09 00:36:54;;;;;;;2.97;2.63;;;13.70;99.90;;;;;;6068608;23;20022;-79
2021/07/09 00:39:22;;;;;;;1.95;1.80;;;13.70;99.90;;;;;;6067410;23;20345;-79
2021/07/09 00:41:51;;;;;;;3.15;2.20;;;13.60;99.90;;;;;;6067140;23;20022;-79
2021/07/09 00:44:19;;;;;;;2.22;2.03;;;13.60;99.90;;;;;;6069734;23;20037;-78
2021/07/09 00:46:50;;;;;;;2.05;1.90;;;13.60;99.90;;;;;;6102861;23;20465;-79
2021/07/09 00:49:18;;;;;;;2.10;1.90;;;13.60;99.90;;;;;;6103268;23;20014;-79
2021/07/09 00:51:47;;;;;;;4.65;2.58;;;13.50;99.90;;;;;;6043742;23;20019;-79
2021/07/09 00:54:15;;;;;;;2.83;2.55;;;13.50;99.90;;;;;;6104034;23;20435;-79
2021/07/09 00:56:43;;;;;;;3.92;2.58;;;13.50;99.90;;;;;;6095013;23;20027;-79
2021/07/09 00:59:13;;;;;;;2.70;2.20;;;13.50;99.90;;;;;;6100636;23;20038;-79
2021/07/09 01:01:42;;;;;;;;;;;13.50;99.90;;;;;;6104452;23;20014;-79
2021/07/09 01:04:10;;;;;;;3.15;2.95;;;13.50;99.90;;;;;;6096895;23;19932;-79
2021/07/09 01:06:38;;;;;;;2.22;2.03;;;13.50;99.90;;;;;;6102005;23;20018;-79
2021/07/09 01:09:05;;;;;;;2.45;2.10;;;13.40;99.90;;;;;;6078127;23;20017;-79
2021/07/09 01:11:36;;;;;;;3.45;1.30;;;13.40;99.90;;;;;;6099227;23;20018;-79
2021/07/09 01:14:05;;;;;;;2.70;2.50;;;13.30;99.90;;;;;;6103212;23;20449;-79
2021/07/09 01:16:32;;;;;;;3.05;2.78;;;13.20;99.90;;;;;;6069976;23;20030;-79
2021/07/09 01:19:01;;;;;;;1.70;1.60;;;13.20;99.90;;;;;;6076860;23;20616;-79
2021/07/09 01:21:29;;;;;;;3.33;1.80;;;13.20;99.90;;;;;;6077849;23;20022;-80
2021/07/09 01:24:01;;;;;;;3.47;2.83;;;13.10;99.90;;;;;;6069303;23;20018;-80
2021/07/09 01:26:29;;;;;;;36.63;4.00;;;13.10;99.90;;;;;;6133197;23;20010;-80
2021/07/09 01:28:56;;;;;;;8.20;3.97;;;13.00;99.90;;;;;;6071329;23;20022;-79
2021/07/09 01:31:24;;;;;;;2.92;2.17;;;12.90;99.90;;;;;;6103585;23;20026;-80
2021/07/09 01:33:52;;;;;;;7.68;2.17;;;12.80;99.90;;;;;;6123698;23;20017;-80
2021/07/09 01:36:21;;;;;;;2.47;1.98;;;12.80;99.90;;;;;;6099339;23;20041;-79
2021/07/09 01:38:50;;;;;;;5.35;2.75;;;12.80;99.90;;;;;;6131522;23;20014;-80
2021/07/09 01:41:20;;;;;;;2.92;2.50;;;12.70;99.90;;;;;;6107102;23;20014;-80
2021/07/09 01:43:48;;;;;;;3.90;2.17;;;12.70;99.90;;;;;;6126623;23;20026;-80
2021/07/09 01:46:16;;;;;;;2.65;2.45;;;12.70;99.90;;;;;;6073600;23;20403;-80
2021/07/09 01:48:45;;;;;;;2.40;1.63;;;12.80;99.90;;;;;;6100281;23;20022;-80
2021/07/09 01:51:12;;;;;;;4.25;2.08;;;12.80;99.90;;;;;;6073743;23;20018;-80
2021/07/09 01:53:40;;;;;;;9.95;2.03;;;12.70;99.90;;;;;;6083145;23;20103;-80
2021/07/09 01:56:08;;;;;;;6.55;2.63;;;12.70;99.90;;;;;;6128020;23;20358;-80
2021/07/09 01:58:36;;;;;;;4.50;2.75;;;12.70;99.90;;;;;;6084117;23;20021;-80
2021/07/09 02:01:09;;;;;;;3.58;2.42;;;12.60;99.90;;;;;;6109450;23;20009;-88
2021/07/09 02:03:38;;;;;;;10.02;2.45;;;12.70;99.90;;;;;;6051233;23;20386;-88
2021/07/09 02:06:11;;;;;;;2.45;2.25;;;12.60;99.90;;;;;;6076527;23;20021;-79
2021/07/09 02:08:39;;;;;;;3.13;2.33;;;12.50;99.90;;;;;;6097383;23;20026;-80
2021/07/09 02:11:07;;;;;;;2.20;2.00;;;12.50;99.90;;;;;;6098410;23;20018;-79
2021/07/09 02:13:35;;;;;;;2.08;1.70;;;12.50;99.90;;;;;;6108474;23;20010;-80
2021/07/09 02:16:03;;;;;;;2.72;1.83;;;12.50;99.90;;;;;;6128131;23;20021;-79
2021/07/09 02:18:31;;;;;;;4.13;3.72;;;12.50;99.90;;;;;;6135467;23;20010;-79
2021/07/09 02:20:58;;;;;;;2.47;1.63;;;12.50;99.90;;;;;;6097935;23;20025;-79
2021/07/09 02:23:26;;;;;;;2.38;1.67;;;12.50;99.90;;;;;;6077782;23;20018;-79
2021/07/09 02:25:55;;;;;;;1.65;1.40;;;12.50;99.90;;;;;;6069429;23;20015;-79
2021/07/09 02:28:23;;;;;;;1.35;1.15;;;12.50;99.90;;;;;;6071256;23;20022;-79
2021/07/09 02:30:51;;;;;;;1.75;1.65;;;12.50;99.90;;;;;;6078092;23;20018;-79
2021/07/09 02:33:19;;;;;;;3.20;1.75;;;12.40;99.90;;;;;;6079778;23;20025;-79
2021/07/09 02:35:46;;;;;;;1.90;1.70;;;12.40;99.90;;;;;;6099823;23;20441;-79
2021/07/09 02:38:14;;;;;;;1.50;1.40;;;12.40;99.90;;;;;;6079169;23;20026;-80
2021/07/09 02:40:43;;;;;;;1.55;0.93;;;12.40;99.90;;;;;;6096486;23;20035;-79
2021/07/09 02:43:11;;;;;;;1.20;1.10;;;12.40;99.90;;;;;;6075378;23;20022;-79
2021/07/09 02:45:39;;;;;;;0.98;0.70;;;12.40;99.90;;;;;;6105582;23;20022;-80
2021/07/09 02:48:17;;;;;;;1.10;1.00;;;12.40;99.90;;;;;;6045002;23;20037;-79
2021/07/09 02:50:45;;;;;;;3.10;1.45;;;12.50;99.90;;;;;;6068918;23;20018;-79
2021/07/09 02:53:13;;;;;;;1.30;1.20;;;12.60;99.90;;;;;;6077121;23;20022;-80
2021/07/09 02:55:41;;;;;;;7.20;1.08;;;12.60;99.90;;;;;;6067866;23;20034;-79
2021/07/09 02:58:10;;;;;;;2.72;1.58;;;12.60;99.90;;;;;;6078758;23;20015;-79
2021/07/09 03:00:42;;;;;;;1.70;1.30;;;12.70;99.90;;;;;;6071136;23;20026;-79
2021/07/09 03:03:10;;;;;;;1.48;1.15;;;12.70;99.90;;;;;;6076798;23;20347;-79
2021/07/09 03:05:38;;;;;;;2.10;1.90;;;12.70;99.90;;;;;;6056313;23;20025;-79
2021/07/09 03:08:06;;;;;;;1.13;1.02;;;12.70;99.90;;;;;;6094148;23;20445;-79
2021/07/09 03:10:34;;;;;;;0.85;0.85;;;12.70;99.90;;;;;;6078991;23;20334;-79
2021/07/09 03:13:02;;;;;;;2.35;1.33;;;12.80;99.90;;;;;;6043751;23;20025;-79
2021/07/09 03:15:30;;;;;;;2.03;0.85;;;12.80;99.90;;;;;;6100435;23;20026;-79
2021/07/09 03:17:58;;;;;;;1.10;1.00;;;12.90;99.90;;;;;;6079493;23;20022;-79
2021/07/09 03:20:25;;;;;;;1.25;1.20;;;12.90;99.90;;;;;;6047821;23;20022;-79
2021/07/09 03:22:53;;;;;;;1.20;1.10;;;12.90;99.90;;;;;;6113340;23;20793;-80
2021/07/09 03:25:21;;;;;;;0.70;0.70;;;13.00;99.90;;;;;;6107518;23;20014;-79
2021/07/09 03:27:49;;;;;;;1.02;0.93;;;13.00;99.90;;;;;;6101678;23;20335;-80
2021/07/09 03:30:17;;;;;;;0.73;0.73;;;13.00;99.90;;;;;;6097907;23;20022;-80
2021/07/09 03:32:46;;;;;;;0.93;0.93;;;13.00;99.90;;;;;;6097449;23;20056;-80
2021/07/09 03:35:14;;;;;;;0.70;0.70;;;13.10;99.90;;;;;;6130980;23;20029;-79
2021/07/09 03:37:42;;;;;;;0.63;0.57;;;13.10;99.90;;;;;;6107932;23;20025;-80
2021/07/09 03:40:10;;;;;;;0.52;0.52;;;13.10;99.90;;;;;;6075365;23;20033;-80
2021/07/09 03:42:38;;;;;;;1.60;0.80;;;13.10;99.90;;;;;;6131810;23;20035;-80
2021/07/09 03:45:07;;;;;;;0.50;0.50;;;13.10;99.90;;;;;;6074233;23;20021;-79
2021/07/09 03:47:35;;;;;;;0.68;0.68;;;13.10;99.90;;;;;;6096420;23;20033;-87
2021/07/09 03:50:05;;;;;;;0.60;0.60;;;13.10;99.90;;;;;;6108208;23;20596;-87
2021/07/09 03:52:33;;;;;;;0.95;0.70;;;13.10;99.90;;;;;;6072022;23;20022;-79
2021/07/09 03:55:01;;;;;;;0.55;0.47;;;13.10;99.90;;;;;;6129496;23;20354;-79
2021/07/09 03:57:29;;;;;;;0.43;0.43;;;13.10;99.90;;;;;;6133165;23;20025;-79
2021/07/09 03:59:56;;;;;;;0.30;0.30;;;13.10;99.90;;;;;;6127381;23;20069;-79
2021/07/09 04:02:24;;;;;;;0.25;0.25;;;13.10;99.90;;;;;;6133787;23;20018;-80
2021/07/09 04:04:52;;;;;;;0.40;0.30;;;13.10;99.90;;;;;;6124239;23;20026;-81
2021/07/09 04:07:20;;;;;;;0.40;0.40;;;13.10;99.90;;;;;;6104003;23;20048;-79
2021/07/09 04:09:48;;;;;;;3.03;0.40;;;13.20;99.90;;;;;;6131155;23;20010;-79
2021/07/09 04:12:15;;;;;;;0.30;0.30;;;13.20;99.90;;;;;;6099877;23;20026;-79
2021/07/09 04:14:43;;;;;;;0.30;0.30;;;13.20;99.90;;;;;;6106257;23;20018;-79
2021/07/09 04:17:11;;;;;;;0.30;0.30;;;13.10;99.90;;;;;;6123483;23;20456;-79
2021/07/09 04:19:39;;;;;;;1.58;0.70;;;13.20;99.90;;;;;;6128916;23;20026;-80
2021/07/09 04:22:07;;;;;;;0.35;0.35;;;13.10;99.90;;;;;;6131566;23;20026;-80
2021/07/09 04:24:35;;;;;;;0.40;0.40;;;13.10;99.90;;;;;;6096175;23;20026;-80
2021/07/09 04:27:03;;;;;;;1.55;0.32;;;13.10;99.90;;;;;;6105398;23;20454;-80
2021/07/09 04:29:32;;;;;;;0.20;0.20;;;13.10;99.90;;;;;;6107207;23;20010;-80
2021/07/09 04:31:59;;;;;;;1.75;0.30;;;13.10;99.90;;;;;;6127050;23;20466;-80
2021/07/09 04:34:27;;;;;;;0.20;0.20;;;13.20;99.90;;;;;;6082189;23;20021;-79
2021/07/09 04:36:55;;;;;;;0.30;0.30;;;13.20;99.90;;;;;;6096019;23;20022;-80
2021/07/09 04:39:23;;;;;;;0.40;0.40;;;13.20;99.90;;;;;;6128279;23;20045;-79
2021/07/09 04:41:52;;;;;;;0.30;0.30;;;13.10;99.90;;;;;;6107958;23;20362;-80
2021/07/09 04:44:19;;;;;;;0.20;0.20;;;13.20;99.90;;;;;;6124993;23;20026;-79
2021/07/09 04:46:47;;;;;;;0.30;0.30;;;13.20;99.90;;;;;;6132087;23;20446;-79
2021/07/09 04:49:15;;;;;;;0.47;0.47;;;13.30;99.90;;;;;;6096118;23;20022;-81
2021/07/09 04:51:43;;;;;;;0.40;0.40;;;13.20;99.90;;;;;;6125950;23;20026;-80
2021/07/09 04:54:10;;;;;;;0.40;0.40;;;13.30;99.90;;;;;;6133760;23;20464;-80
2021/07/09 04:56:38;;;;;;;0.68;0.40;;;13.20;99.90;;;;;;6124700;23;20029;-79
2021/07/09 04:59:07;;;;;;;0.50;0.50;;;13.20;99.90;;;;;;6096091;23;20076;-81
2021/07/09 05:01:35;;;;;;;0.28;0.28;;;13.30;99.90;;;;;;6133150;23;20337;-83
2021/07/09 05:04:04;;;;;;;0.30;0.30;;;13.30;99.90;;;;;;6126986;23;20030;-82
2021/07/09 05:06:32;;;;;;;0.60;0.60;;;13.30;99.90;;;;;;6107785;23;20022;-82
2021/07/09 05:09:01;;;;;;;0.40;0.40;;;13.40;99.90;;;;;;6122335;23;20052;-81
2021/07/09 05:11:29;;;;;;;0.30;0.30;;;13.40;99.90;;;;;;6128772;23;20029;-82
2021/07/09 05:13:56;;;;;;;0.32;0.32;;;13.40;99.90;;;;;;6132183;23;20010;-82
2021/07/09 05:16:25;;;;;;;0.47;0.47;;;13.50;99.90;;;;;;6098682;23;20037;-81
2021/07/09 05:18:54;;;;;;;0.40;0.40;;;13.50;99.90;;;;;;6131482;23;20014;-80
2021/07/09 05:21:23;;;;;;;0.60;0.57;;;13.50;99.90;;;;;;6133060;23;20037;-80
2021/07/09 05:23:51;;;;;;;0.30;0.30;;;13.60;99.90;;;;;;6123248;23;20034;-80
2021/07/09 05:26:19;;;;;;;1.95;0.60;;;13.50;99.90;;;;;;6133159;23;20018;-79
2021/07/09 05:28:48;;;;;;;0.43;0.43;;;13.50;99.90;;;;;;6096000;23;20026;-78
2021/07/09 05:31:16;;;;;;;0.43;0.43;;;13.50;99.90;;;;;;6129712;23;20714;-79
2021/07/09 05:33:44;;;;;;;0.40;0.40;;;13.40;99.90;;;;;;6081378;23;20021;-80
2021/07/09 05:36:12;;;;;;;1.38;0.80;;;13.40;99.90;;;;;;6125901;23;20056;-80
2021/07/09 05:38:40;;;;;;;0.40;0.40;;;13.60;99.90;;;;;;6131822;23;20014;-81
2021/07/09 05:41:08;;;;;;;2.47;0.60;;;13.60;99.90;;;;;;6132848;23;20018;-80
2021/07/09 05:43:36;;;;;;;0.60;0.60;;;13.80;99.90;;;;;;6127926;23;20021;-81
2021/07/09 05:46:05;;;;;;;0.70;0.70;;;13.90;99.90;;;;;;6133666;23;20014;-80
2021/07/09 05:48:33;;;;;;;0.75;0.75;;;14.10;99.90;;;;;;6124793;23;20022;-80
2021/07/09 05:51:01;;;;;;;0.47;0.47;;;14.20;99.90;;;;;;6073210;23;20026;-81
2021/07/09 05:53:30;;;;;;;0.47;0.47;;;14.10;99.90;;;;;;6073025;23;20014;-80
2021/07/09 05:55:59;;;;;;;0.43;0.43;;;14.10;99.90;;;;;;6127035;23;20018;-81
2021/07/09 05:58:27;;;;;;;0.50;0.50;;;14.00;99.90;;;;;;6071197;23;20014;-80
2021/07/09 06:00:55;;;;;;;0.70;0.70;;;14.00;99.90;;;;;;6122869;23;20478;-80
2021/07/09 06:03:22;;;;;;;0.50;0.50;;;13.90;99.90;;;;;;6096746;23;20426;-80
2021/07/09 06:05:50;;;;;;;0.50;0.50;;;13.90;99.90;;;;;;6133093;23;20018;-81
2021/07/09 06:08:18;;;;;;;0.70;0.70;;;14.00;99.90;;;;;;6125632;23;20532;-81
2021/07/09 06:10:46;;;;;;;0.68;0.68;;;14.00;99.90;;;;;;6131476;23;20023;-77
2021/07/09 06:13:13;;;;;;;0.63;0.50;;;14.00;99.90;;;;;;6132285;23;20333;-80
2021/07/09 06:15:41;;;;;;;0.70;0.70;;;14.20;99.90;;;;;;6096254;23;20030;-79
2021/07/09 06:18:19;;;;;;;0.80;0.80;;;14.30;99.90;;;;;;6133351;23;20018;-81
2021/07/09 06:20:47;;;;;;;0.60;0.60;;;14.30;99.90;;;;;;6097953;23;20033;-81
2021/07/09 06:23:15;;;;;;;0.45;0.45;;;14.40;99.90;;;;;;6099998;23;20484;-83
2021/07/09 06:25:43;;;;;;;0.70;0.70;;;14.40;99.90;;;;;;6133234;23;20021;-81
2021/07/09 06:28:11;;;;;;;0.47;0.47;;;14.50;99.90;;;;;;6125249;23;20037;-85
2021/07/09 06:30:39;;;;;;;0.90;0.60;;;14.50;99.90;;;;;;6095676;23;20018;-80
2021/07/09 06:33:09;;;;;;;0.60;0.60;;;14.50;99.90;;;;;;6107503;23;20014;-82
2021/07/09 06:35:37;;;;;;;0.30;0.30;;;14.50;99.90;;;;;;6104216;23;20354;-80
2021/07/09 06:38:06;;;;;;;1.05;1.00;;;14.40;99.90;;;;;;6108565;23;20021;-81
2021/07/09 06:40:34;;;;;;;0.60;0.60;;;14.40;99.90;;;;;;6125265;23;20034;-81
2021/07/09 06:43:03;;;;;;;1.13;0.50;;;14.30;99.90;;;;;;6130953;23;20025;-81
2021/07/09 06:45:31;;;;;;;1.85;0.60;;;14.40;99.90;;;;;;6134874;23;20029;-80
2021/07/09 06:47:59;;;;;;;1.20;0.93;;;14.40;99.90;;;;;;6128569;23;20029;-78
2021/07/09 06:50:26;;;;;;;0.40;0.40;;;14.40;99.90;;;;;;6130747;23;20018;-79
2021/07/09 06:52:54;;;;;;;0.50;0.50;;;14.30;99.90;;;;;;6124860;23;20025;-80
2021/07/09 06:55:22;;;;;;;0.57;0.57;;;14.30;99.90;;;;;;6074287;23;20473;-80
2021/07/09 06:57:50;;;;;;;0.65;0.60;;;14.30;99.90;;;;;;6084562;23;20021;-79
2021/07/09 07:00:18;;;;;;;0.70;0.70;;;14.30;99.90;;;;;;6127159;23;20022;-79
2021/07/09 07:02:47;;;;;;;0.50;0.50;;;14.20;99.90;;;;;;6074608;23;20034;-79
2021/07/09 07:05:16;;;;;;;0.98;0.70;;;14.20;99.90;;;;;;6135380;23;20480;-78
2021/07/09 07:07:44;;;;;;;0.47;0.47;;;14.20;99.90;;;;;;6129651;23;20030;-78
2021/07/09 07:10:13;;;;;;;0.40;0.40;;;14.10;99.90;;;;;;6109193;23;20666;-80
2021/07/09 07:12:46;;;;;;;0.63;0.63;;;14.10;99.90;;;;;;6124541;23;20026;-77
2021/07/09 07:15:14;;;;;;;0.75;0.75;;;14.00;99.90;;;;;;6131820;23;20026;-78
2021/07/09 07:17:42;;;;;;;0.68;0.68;;;13.80;99.90;;;;;;6135145;23;20037;-79
2021/07/09 07:20:10;;;;;;;0.68;0.68;;;13.60;99.90;;;;;;6128112;23;20026;-79
2021/07/09 07:22:38;;;;;;;0.70;0.70;;;13.50;99.90;;;;;;6074785;23;20029;-78
2021/07/09 07:25:07;;;;;;;0.70;0.70;;;13.50;99.90;;;;;;6134874;23;20021;-80
2021/07/09 07:27:35;;;;;;;0.90;0.60;;;13.50;99.90;;;;;;6097067;23;20022;-78
2021/07/09 07:30:04;;;;;;;0.60;0.60;;;13.50;99.90;;;;;;6134844;23;20013;-80
2021/07/09 07:32:32;;;;;;;0.63;0.63;;;13.50;99.90;;;;;;6100848;23;20030;-81
2021/07/09 07:35:00;;;;;;;1.27;0.68;;;13.60;99.90;;;;;;6132718;23;20021;-79
2021/07/09 07:37:27;;;;;;;0.50;0.50;;;13.60;99.90;;;;;;6134518;23;20017;-80
2021/07/09 07:39:55;;;;;;;1.17;0.95;;;13.60;99.90;;;;;;6128576;23;20041;-80
2021/07/09 07:42:23;;;;;;;1.27;1.17;;;13.70;99.90;;;;;;6134632;23;20342;-79
2021/07/09 07:44:51;;;;;;;0.73;0.73;;;13.70;99.90;;;;;;6124428;23;20346;-80
2021/07/09 07:47:21;;;;;;;0.93;0.93;;;13.70;99.90;;;;;;6131505;23;20022;-81
2021/07/09 07:49:49;;;;;;;0.70;0.70;;;13.80;99.90;;;;;;6109361;23;20014;-79
2021/07/09 07:52:17;;;;;;;0.77;0.77;;;13.80;99.90;;;;;;6126964;23;20457;-80
2021/07/09 07:54:45;;;;;;;1.83;1.73;;;13.80;99.90;;;;;;6133434;23;20018;-81
2021/07/09 07:57:13;;;;;;;1.00;0.68;;;13.90;99.90;;;;;;6134945;23;20024;-80
2021/07/09 07:59:41;;;;;;;0.85;0.80;;;13.90;99.90;;;;;;6128945;23;20032;-80
2021/07/09 08:02:09;;;;;;;2.15;1.00;;;14.00;99.90;;;;;;6074443;23;20029;-80
2021/07/09 08:04:37;;;;;;;0.90;0.90;;;14.10;99.90;;;;;;6125791;23;20026;-80
2021/07/09 08:07:05;;;;;;;0.80;0.70;;;14.20;99.90;;;;;;6132072;23;20030;-80
2021/07/09 08:09:33;;;;;;;0.98;0.98;;;14.20;99.90;;;;;;6134793;23;20017;-81
2021/07/09 08:12:07;;;;;;;1.17;1.08;;;14.20;99.90;;;;;;6128161;23;20029;-80
2021/07/09 08:14:35;;;;;;;3.67;1.10;;;14.30;99.90;;;;;;6133528;23;20013;-81
2021/07/09 08:17:04;;;;;;;1.92;1.10;;;14.30;99.90;;;;;;6134367;23;20018;-79
2021/07/09 08:19:33;;;;;;;1.20;1.10;;;14.30;99.90;;;;;;6129871;23;20041;-80
2021/07/09 08:22:01;;;;;;;1.05;1.00;;;14.40;99.90;;;;;;6132659;23;20037;-79
2021/07/09 08:24:29;;;;;;;0.85;0.85;;;14.50;99.90;;;;;;6100111;23;20022;-80
2021/07/09 08:26:57;;;;;;;1.55;1.20;;;14.60;99.90;;;;;;6097438;23;20018;-80
2021/07/09 08:29:26;;;;;;;3.42;1.00;;;14.80;99.90;;;;;;6074109;23;20037;-80
2021/07/09 08:31:54;;;;;;;2.65;1.00;;;14.90;99.90;;;;;;6102014;23;20466;-80
2021/07/09 08:34:23;;;;;;;1.80;1.20;;;14.90;99.90;;;;;;6108315;23;20050;-79
2021/07/09 08:36:50;;;;;;;1.00;1.00;;;14.80;99.90;;;;;;6073067;23;20061;-80
2021/07/09 08:39:19;;;;;;;1.08;0.90;;;14.60;99.90;;;;;;6096664;23;20021;-79
2021/07/09 08:41:48;;;;;;;1.98;1.15;;;14.50;99.90;;;;;;6073906;23;20045;-79
2021/07/09 08:44:16;;;;;;;0.80;0.80;;;14.40;99.90;;;;;;6072436;23;20029;-80
2021/07/09 08:46:44;;;;;;;1.40;1.30;;;14.20;99.90;;;;;;6132907;23;20438;-81
2021/07/09 08:49:15;;;;;;;0.90;0.90;;;14.20;99.90;;;;;;6108525;23;20021;-85
2021/07/09 08:51:43;;;;;;;;;;;14.10;99.90;;;;;;6103580;23;20033;-81
2021/07/09 08:54:16;;;;;;;1.40;1.08;;;14.10;99.90;;;;;;6074068;23;20244;-81
2021/07/09 08:56:45;;;;;;;0.90;0.90;;;14.20;99.90;;;;;;6074292;23;20034;-81
2021/07/09 08:59:13;;;;;;;1.05;1.05;;;14.20;99.90;;;;;;6130444;23;20017;-81
2021/07/09 09:01:48;;;;;;;0.95;0.95;;;14.30;99.90;;;;;;6108110;23;20468;-80
2021/07/09 09:04:24;;;;;;;0.90;0.90;;;14.40;99.90;;;;;;6101099;23;20026;-80
2021/07/09 09:07:04;;;;;;;0.88;0.80;;;14.50;99.90;;;;;;6106780;23;20014;-81
2021/07/09 09:09:36;;;;;;;0.82;0.80;;;14.60;99.90;;;;;;6108618;23;20014;-81
2021/07/09 09:12:09;;;;;;;0.90;0.90;;;14.50;99.90;;;;;;6100557;23;20022;-78
2021/07/09 09:14:45;;;;;;;0.70;0.70;;;14.60;99.90;;;;;;6132607;23;20669;-80
2021/07/09 09:17:35;;;;;;;1.83;1.73;;;14.70;99.90;;;;;;6134099;23;20434;-78
2021/07/09 09:20:16;;;;;;;1.08;0.82;;;14.80;99.90;;;;;;6127484;23;20480;-80
2021/07/09 09:22:50;;;;;;;0.65;0.65;;;14.90;99.90;;;;;;6128423;23;20033;-78
2021/07/09 09:25:20;;;;;;;0.93;0.70;;;15.00;99.90;;;;;;6133913;23;20017;-78
2021/07/09 09:28:11;;;;;;;1.40;1.17;;;15.00;99.90;;;;;;6102192;23;20370;-79
2021/07/09 09:30:41;;;;;;;0.50;0.50;;;15.00;99.90;;;;;;6132628;23;20018;-84
2021/07/09 09:33:10;;;;;;;0.98;0.98;;;15.00;99.90;;;;;;6108429;23;20065;-85
2021/07/09 09:35:44;;;;;;;0.60;0.60;;;15.10;99.90;;;;;;6072780;23;20026;-81
2021/07/09 09:38:15;;;;;;;0.47;0.47;;;15.10;99.90;;;;;;6134351;23;20018;-84
2021/07/09 09:40:45;;;;;;;0.90;0.90;;;15.10;99.90;;;;;;6073171;23;20022;-84
2021/07/09 09:43:23;;;;;;;0.50;0.50;;;15.10;99.90;;;;;;6080312;23;20014;-87
2021/07/09 09:46:05;;;;;;;0.80;0.50;;;15.10;99.90;;;;;;6108457;23;20010;-85
2021/07/09 09:48:47;;;;;;;0.70;0.70;;;15.20;99.90;;;;;;6125708;23;20473;-87
2021/07/09 09:51:22;;;;;;;;;;;15.30;99.90;;;;;;6071451;23;20025;-86
2021/07/09 09:54:05;;;;;;;0.82;0.82;;;15.40;99.90;;;;;;6097472;23;20344;-82
2021/07/09 09:56:40;;;;;;;0.65;0.65;;;15.50;99.90;;;;;;6125156;23;20022;-83
2021/07/09 09:59:17;;;;;;;0.65;0.65;;;15.50;99.90;;;;;;6130589;23;20021;-84
2021/07/09 10:01:49;;;;;;;1.00;0.80;;;15.60;99.90;;;;;;6134089;23;20442;-84
2021/07/09 10:04:18;;;;;;;0.77;0.73;;;15.60;99.90;;;;;;6100074;23;20029;-81
2021/07/09 10:06:46;;;;;;;0.80;0.80;;;15.60;99.90;;;;;;6132236;23;20017;-82
2021/07/09 10:09:15;;;;;;;0.65;0.65;;;15.60;99.90;;;;;;6108507;23;20036;-82
2021/07/09 10:11:45;;;;;;;0.75;0.73;;;15.40;99.90;;;;;;6127260;23;20329;-85
2021/07/09 10:14:16;;;;;;;0.70;0.70;;;15.50;99.90;;;;;;6098077;23;20022;-82
2021/07/09 10:16:49;;;;;;;0.93;0.90;;;15.70;99.90;;;;;;6100030;23;20033;-79
2021/07/09 10:19:27;;;;;;;1.00;0.90;;;15.90;99.90;;;;;;6097808;23;20022;-83
2021/07/09 10:21:55;;;;;;;0.82;0.82;;;16.00;99.90;;;;;;6135091;23;20018;-80
2021/07/09 10:24:22;;;;;;;1.17;1.08;;;15.90;99.90;;;;;;6126163;23;20021;-81
2021/07/09 10:26:53;;;;;;;0.60;0.60;;;16.00;99.90;;;;;;6098286;23;20341;-80
2021/07/09 10:29:28;;;;;;;0.70;0.70;;;15.70;99.90;;;;;;6108770;23;20018;-81
2021/07/09 10:31:56;;;;;;;0.70;0.70;;;15.60;99.90;;;;;;6103244;23;20034;-81
2021/07/09 10:34:34;;;;;;;0.75;0.75;;;15.50;99.90;;;;;;6098706;23;20022;-83
2021/07/09 10:37:23;;;;;;;1.20;1.10;;;15.40;99.90;;;;;;6123576;23;20033;-82
2021/07/09 10:40:03;;;;;;;1.05;1.02;;;15.50;99.90;;;;;;6128753;23;20037;-83
2021/07/09 10:42:41;;;;;;;1.20;1.10;;;15.60;99.90;;;;;;6108125;23;20018;-81
2021/07/09 10:45:18;;;;;;;1.33;1.23;;;15.70;99.90;;;;;;6071953;23;20033;-81
2021/07/09 10:48:06;;;;;;;1.00;1.00;;;15.70;99.90;;;;;;6103147;23;20037;-82
2021/07/09 10:50:37;;;;;;;1.55;1.25;;;15.70;99.90;;;;;;6132850;23;20028;-86
2021/07/09 10:53:13;;;;;;;1.38;1.27;;;15.70;99.90;;;;;;6108529;23;20025;-82
2021/07/09 10:55:46;;;;;;;1.02;1.00;;;15.50;99.90;;;;;;6129433;23;20694;-86
2021/07/09 10:58:22;;;;;;;1.00;0.90;;;15.50;99.90;;;;;;6133789;23;20025;-84
2021/07/09 11:01:08;;;;;;;1.40;1.30;;;15.60;99.90;;;;;;6124530;23;20037;-80
2021/07/09 11:03:43;;;;;;;1.60;1.50;;;15.60;99.90;;;;;;6074013;23;20018;-81
2021/07/09 11:06:20;;;;;;;2.33;1.00;;;15.70;99.90;;;;;;6101368;23;20031;-81
2021/07/09 11:09:07;;;;;;;1.55;1.45;;;15.70;99.90;;;;;;6124342;23;20017;-81
2021/07/09 11:11:48;;;;;;;2.03;1.27;;;15.70;99.90;;;;;;6129778;23;20018;-81
2021/07/09 11:14:34;;;;;;;;;;;15.80;99.90;;;;;;6097512;23;20026;-80
2021/07/09 11:17:16;;;;;;;1.45;1.30;;;16.00;99.90;;;;;;6121999;23;19917;-81
2021/07/09 11:19:44;;;;;;;2.00;1.40;;;16.00;99.90;;;;;;6102948;23;20026;-80
2021/07/09 11:22:18;;;;;;;2.08;1.42;;;15.70;99.90;;;;;;6133113;23;20021;-81
2021/07/09 11:24:55;;;;;;;1.85;1.75;;;15.50;99.90;;;;;;6096798;23;20037;-79
2021/07/09 11:27:28;;;;;;;3.67;1.85;;;15.50;99.90;;;;;;6129756;23;20365;-81
2021/07/09 11:30:02;;;;;;;1.73;1.63;;;15.10;99.90;;;;;;6133869;23;20018;-80
2021/07/09 11:32:35;;;;;;;1.83;1.70;;;14.90;99.90;;;;;;6125415;23;20342;-80
2021/07/09 11:35:04;;;;;;;1.83;1.73;;;14.70;99.90;;;;;;6131191;23;20018;-80
2021/07/09 11:37:33;;;;;;;1.80;1.70;;;14.80;99.90;;;;;;6108233;23;20010;-81
2021/07/09 11:40:08;;;;;;;1.88;1.75;;;14.80;99.90;;;;;;6073540;23;20041;-81
2021/07/09 11:42:39;;;;;;;3.10;1.95;;;14.90;99.90;;;;;;6072604;23;20014;-83
2021/07/09 11:45:12;;;;;;;2.28;2.10;;;15.00;99.90;;;;;;6108705;23;20525;-82
2021/07/09 11:47:42;;;;;;;2.67;2.47;;;15.10;99.90;;;;;;6128705;23;20018;-80
2021/07/09 11:50:20;;;;;;;2.63;2.40;;;15.30;99.90;;;;;;6050229;23;20022;-81
2021/07/09 11:52:57;;;;;;;3.42;2.85;;;15.40;99.90;;;;;;6072922;23;20029;-81
2021/07/09 11:55:28;;;;;;;3.88;2.60;;;15.60;99.90;;;;;;6104215;23;20022;-81
2021/07/09 11:58:06;;;;;;;4.40;3.00;;;15.50;99.90;;;;;;6073788;23;20017;-79
2021/07/09 12:00:34;;;;;;;4.47;4.07;;;15.50;99.90;;;;;;6099189;23;20041;-80
2021/07/09 12:03:02;;;;;;;3.35;2.40;;;15.60;99.90;;;;;;6131503;23;20438;-78
2021/07/09 12:05:32;;;;;;;3.90;2.78;;;15.50;99.90;;;;;;6073814;23;20025;-78
2021/07/09 12:08:02;;;;;;;3.00;2.70;;;15.50;99.90;;;;;;6071898;23;20026;-81
2021/07/09 12:10:32;;;;;;;2.15;2.05;;;15.40;99.90;;;;;;6097149;23;20341;-80
2021/07/09 12:13:03;;;;;;;4.47;3.45;;;15.40;99.90;;;;;;6121905;23;20600;-78
2021/07/09 12:15:33;;;;;;;2.38;2.17;;;15.40;99.90;;;;;;6129265;23;20026;-79
2021/07/09 12:18:09;;;;;;;2.63;2.10;;;15.40;99.90;;;;;;6133726;23;20010;-79
2021/07/09 12:20:45;;;;;;;4.25;3.63;;;15.50;99.90;;;;;;6124439;23;20362;-79
2021/07/09 12:23:18;;;;;;;2.78;2.58;;;15.40;99.90;;;;;;6095596;23;20341;-79
2021/07/09 12:25:53;;;;;;;3.45;3.15;;;15.40;99.90;;;;;;6133929;23;20018;-79
2021/07/09 12:28:23;;;;;;;2.80;2.58;;;15.40;99.90;;;;;;6047578;23;20040;-80
2021/07/09 12:30:54;;;;;;;2.40;2.20;;;15.60;99.90;;;;;;6105547;23;20022;-80
2021/07/09 12:33:36;;;;;;;3.08;2.72;;;15.70;99.90;;;;;;6096229;23;20253;-81
2021/07/09 12:36:07;;;;;;;;;;;15.90;99.90;;;;;;6101331;23;20018;-84
2021/07/09 12:38:37;;;;;;;2.50;2.30;;;15.90;99.90;;;;;;6072082;23;20333;-82
2021/07/09 12:41:07;;;;;;;5.07;2.60;;;15.90;99.90;;;;;;6132168;23;20334;-81
2021/07/09 12:43:50;;;;;;;2.92;2.72;;;15.90;99.90;;;;;;6100692;23;20026;-84
2021/07/09 12:46:26;;;;;;;6.10;2.97;;;16.00;99.90;;;;;;6132640;23;20021;-82
2021/07/09 12:49:02;;;;;;;3.17;2.72;;;16.10;99.90;;;;;;6097320;23;20026;-82
2021/07/09 12:51:34;;;;;;;4.93;3.83;;;16.20;99.90;;;;;;6071943;23;20033;-85
2021/07/09 12:54:07;;;;;;;3.50;2.85;;;16.10;99.90;;;;;;6107764;23;20341;-82
2021/07/09 12:56:50;;;;;;;3.97;3.55;;;16.00;99.90;;;;;;6068787;23;20037;-82
2021/07/09 12:59:20;;;;;;;2.45;2.35;;;16.00;99.90;;;;;;6047585;23;20033;-83
2021/07/09 13:02:01;;;;;;;2.83;2.65;;;15.90;99.90;;;;;;6107041;23;20014;-82
2021/07/09 13:04:31;;;;;;;3.15;2.90;;;16.00;99.90;;;;;;6124393;23;20025;-80